Terminal Aerodrome Forecast
Issued by NWS Sioux Falls, SD

Home | Current Version | Previous Version | Text Only | Print | Product List | Glossary On
Versions: 1 2 3 4 5 6 7 8 9 10 11 12 13 14 15 16 17
000
FTUS43 KFSD 281731
TAFHON
TAF
KHON 281731Z 2818/2918 03006KT P6SM SCT015
     FM282000 04008KT P6SM OVC015
     FM290100 03011KT P6SM OVC060
      TEMPO 2903/2906 6SM -SN BKN035
     FM290600 01013KT P6SM BKN030
     FM291100 01010KT P6SM BKN060=

USA.gov is the U.S. government's official web portal to all federal, state and local government web resources and services.